sensor_id;sensor_type;location;lat;lon;timestamp;P1;durP1;ratioP1;P2;durP2;ratioP2
25980;SDS011;13772;52.996;9.124;2023-06-22T05:13:45;12.07;;;9.40;;
25980;SDS011;13772;52.996;9.124;2023-06-22T05:16:10;13.20;;;9.07;;
25980;SDS011;13772;52.996;9.124;2023-06-22T05:18:35;11.10;;;8.70;;
25980;SDS011;13772;52.996;9.124;2023-06-22T05:21:01;12.18;;;9.15;;
25980;SDS011;13772;52.996;9.124;2023-06-22T05:23:27;14.10;;;9.57;;
25980;SDS011;13772;52.996;9.124;2023-06-22T05:25:52;16.63;;;9.93;;
25980;SDS011;13772;52.996;9.124;2023-06-22T05:28:19;11.75;;;10.23;;
25980;SDS011;13772;52.996;9.124;2023-06-22T05:30:48;13.10;;;9.07;;
25980;SDS011;13772;52.996;9.124;2023-06-22T05:33:13;12.88;;;9.55;;
25980;SDS011;13772;52.996;9.124;2023-06-22T05:35:38;10.93;;;9.15;;
25980;SDS011;13772;52.996;9.124;2023-06-22T05:38:03;14.50;;;8.75;;
25980;SDS011;13772;52.996;9.124;2023-06-22T05:40:29;10.18;;;8.55;;
25980;SDS011;13772;52.996;9.124;2023-06-22T05:42:54;11.70;;;8.30;;
25980;SDS011;13772;52.996;9.124;2023-06-22T05:45:19;10.38;;;8.73;;
25980;SDS011;13772;52.996;9.124;2023-06-22T05:47:44;9.52;;;7.00;;
25980;SDS011;13772;52.996;9.124;2023-06-22T05:50:10;9.82;;;7.80;;
25980;SDS011;13772;52.996;9.124;2023-06-22T05:52:35;9.98;;;7.70;;
25980;SDS011;13772;52.996;9.124;2023-06-22T05:55:01;11.00;;;7.07;;
25980;SDS011;13772;52.996;9.124;2023-06-22T05:57:27;11.30;;;7.70;;
25980;SDS011;13772;52.996;9.124;2023-06-22T05:59:52;9.15;;;6.65;;
25980;SDS011;13772;52.996;9.124;2023-06-22T06:02:18;9.57;;;6.55;;
25980;SDS011;13772;52.996;9.124;2023-06-22T06:04:44;8.40;;;6.57;;
25980;SDS011;13772;52.996;9.124;2023-06-22T06:07:09;7.70;;;6.22;;
25980;SDS011;13772;52.996;9.124;2023-06-22T06:09:34;7.72;;;6.15;;
25980;SDS011;13772;52.996;9.124;2023-06-22T06:12:00;8.52;;;6.10;;
25980;SDS011;13772;52.996;9.124;2023-06-22T06:14:27;9.20;;;6.32;;
25980;SDS011;13772;52.996;9.124;2023-06-22T06:16:53;8.18;;;6.03;;
25980;SDS011;13772;52.996;9.124;2023-06-22T06:19:18;7.15;;;5.82;;
25980;SDS011;13772;52.996;9.124;2023-06-22T06:21:43;7.57;;;5.63;;
25980;SDS011;13772;52.996;9.124;2023-06-22T06:24:08;8.20;;;5.30;;
25980;SDS011;13772;52.996;9.124;2023-06-22T06:26:34;8.05;;;5.10;;
25980;SDS011;13772;52.996;9.124;2023-06-22T06:29:00;6.20;;;4.70;;
25980;SDS011;13772;52.996;9.124;2023-06-22T06:31:27;8.57;;;4.43;;
25980;SDS011;13772;52.996;9.124;2023-06-22T06:33:55;8.20;;;4.87;;
25980;SDS011;13772;52.996;9.124;2023-06-22T06:36:20;9.00;;;4.85;;
25980;SDS011;13772;52.996;9.124;2023-06-22T06:38:46;7.72;;;3.90;;
25980;SDS011;13772;52.996;9.124;2023-06-22T06:41:15;5.50;;;4.15;;
25980;SDS011;13772;52.996;9.124;2023-06-22T06:43:40;5.97;;;4.40;;
25980;SDS011;13772;52.996;9.124;2023-06-22T06:46:07;6.00;;;4.20;;
25980;SDS011;13772;52.996;9.124;2023-06-22T06:48:33;7.00;;;3.92;;
25980;SDS011;13772;52.996;9.124;2023-06-22T06:50:58;5.63;;;3.80;;
25980;SDS011;13772;52.996;9.124;2023-06-22T06:53:23;6.45;;;3.47;;
25980;SDS011;13772;52.996;9.124;2023-06-22T06:55:48;5.03;;;3.70;;
25980;SDS011;13772;52.996;9.124;2023-06-22T06:58:14;5.97;;;3.72;;
25980;SDS011;13772;52.996;9.124;2023-06-22T07:00:40;7.25;;;3.80;;
25980;SDS011;13772;52.996;9.124;2023-06-22T07:03:05;5.60;;;3.70;;
25980;SDS011;13772;52.996;9.124;2023-06-22T07:05:32;6.03;;;3.65;;
25980;SDS011;13772;52.996;9.124;2023-06-22T07:07:57;4.45;;;3.35;;
25980;SDS011;13772;52.996;9.124;2023-06-22T07:10:22;5.68;;;3.65;;
25980;SDS011;13772;52.996;9.124;2023-06-22T07:12:47;4.75;;;3.78;;
25980;SDS011;13772;52.996;9.124;2023-06-22T07:15:13;7.07;;;3.75;;
25980;SDS011;13772;52.996;9.124;2023-06-22T07:17:38;6.57;;;3.60;;
25980;SDS011;13772;52.996;9.124;2023-06-22T07:20:07;6.07;;;3.77;;
25980;SDS011;13772;52.996;9.124;2023-06-22T07:22:37;6.80;;;3.65;;
25980;SDS011;13772;52.996;9.124;2023-06-22T07:25:02;6.10;;;3.78;;
25980;SDS011;13772;52.996;9.124;2023-06-22T07:27:36;6.25;;;3.72;;
25980;SDS011;13772;52.996;9.124;2023-06-22T07:30:03;7.20;;;3.78;;
25980;SDS011;13772;52.996;9.124;2023-06-22T07:32:28;10.32;;;3.58;;
25980;SDS011;13772;52.996;9.124;2023-06-22T07:34:53;5.90;;;3.30;;
25980;SDS011;13772;52.996;9.124;2023-06-22T07:37:19;6.93;;;3.38;;
25980;SDS011;13772;52.996;9.124;2023-06-22T07:39:44;5.93;;;3.95;;
25980;SDS011;13772;52.996;9.124;2023-06-22T07:42:09;5.60;;;3.30;;
25980;SDS011;13772;52.996;9.124;2023-06-22T07:44:35;10.80;;;4.47;;
25980;SDS011;13772;52.996;9.124;2023-06-22T07:47:00;5.43;;;3.40;;
25980;SDS011;13772;52.996;9.124;2023-06-22T07:49:25;6.45;;;3.78;;
25980;SDS011;13772;52.996;9.124;2023-06-22T07:51:50;5.55;;;3.65;;
25980;SDS011;13772;52.996;9.124;2023-06-22T07:54:15;6.90;;;3.13;;
25980;SDS011;13772;52.996;9.124;2023-06-22T07:56:42;5.43;;;3.20;;
25980;SDS011;13772;52.996;9.124;2023-06-22T07:59:08;3.88;;;2.78;;
25980;SDS011;13772;52.996;9.124;2023-06-22T08:01:33;8.75;;;3.55;;
25980;SDS011;13772;52.996;9.124;2023-06-22T08:03:58;5.45;;;2.90;;
25980;SDS011;13772;52.996;9.124;2023-06-22T08:06:23;5.75;;;3.47;;
25980;SDS011;13772;52.996;9.124;2023-06-22T08:08:49;5.15;;;3.13;;
25980;SDS011;13772;52.996;9.124;2023-06-22T08:11:14;5.90;;;3.20;;
25980;SDS011;13772;52.996;9.124;2023-06-22T08:13:39;4.05;;;2.78;;
25980;SDS011;13772;52.996;9.124;2023-06-22T08:16:04;9.27;;;3.53;;
25980;SDS011;13772;52.996;9.124;2023-06-22T08:18:30;3.92;;;2.83;;
25980;SDS011;13772;52.996;9.124;2023-06-22T08:20:55;7.60;;;3.25;;
25980;SDS011;13772;52.996;9.124;2023-06-22T08:23:20;6.73;;;2.90;;
25980;SDS011;13772;52.996;9.124;2023-06-22T08:25:45;4.17;;;2.80;;
25980;SDS011;13772;52.996;9.124;2023-06-22T08:28:11;4.32;;;2.42;;
25980;SDS011;13772;52.996;9.124;2023-06-22T08:30:36;6.75;;;2.47;;
25980;SDS011;13772;52.996;9.124;2023-06-22T08:33:01;5.05;;;2.97;;
25980;SDS011;13772;52.996;9.124;2023-06-22T08:35:26;5.43;;;2.72;;
25980;SDS011;13772;52.996;9.124;2023-06-22T08:37:52;3.50;;;2.53;;
25980;SDS011;13772;52.996;9.124;2023-06-22T08:40:19;5.47;;;3.00;;
25980;SDS011;13772;52.996;9.124;2023-06-22T08:42:45;5.50;;;2.83;;
25980;SDS011;13772;52.996;9.124;2023-06-22T08:45:10;5.30;;;3.00;;
25980;SDS011;13772;52.996;9.124;2023-06-22T08:47:35;3.85;;;2.75;;
25980;SDS011;13772;52.996;9.124;2023-06-22T08:50:00;3.42;;;2.45;;
25980;SDS011;13772;52.996;9.124;2023-06-22T08:52:29;4.00;;;2.50;;
25980;SDS011;13772;52.996;9.124;2023-06-22T08:54:54;6.53;;;3.28;;
25980;SDS011;13772;52.996;9.124;2023-06-22T08:57:20;4.97;;;2.80;;
25980;SDS011;13772;52.996;9.124;2023-06-22T08:59:45;4.65;;;2.38;;
25980;SDS011;13772;52.996;9.124;2023-06-22T09:02:11;5.60;;;3.23;;
25980;SDS011;13772;52.996;9.124;2023-06-22T09:04:36;6.70;;;2.40;;
25980;SDS011;13772;52.996;9.124;2023-06-22T09:07:01;4.82;;;3.10;;
25980;SDS011;13772;52.996;9.124;2023-06-22T09:09:27;5.90;;;3.13;;
25980;SDS011;13772;52.996;9.124;2023-06-22T09:11:52;4.57;;;2.60;;
25980;SDS011;13772;52.996;9.124;2023-06-22T09:14:17;5.63;;;3.00;;
25980;SDS011;13772;52.996;9.124;2023-06-22T09:16:42;3.80;;;2.73;;
25980;SDS011;13772;52.996;9.124;2023-06-22T09:19:08;4.18;;;3.00;;
25980;SDS011;13772;52.996;9.124;2023-06-22T09:21:33;4.05;;;3.00;;
25980;SDS011;13772;52.996;9.124;2023-06-22T09:23:58;3.80;;;3.00;;
25980;SDS011;13772;52.996;9.124;2023-06-22T09:26:23;3.90;;;2.92;;
25980;SDS011;13772;52.996;9.124;2023-06-22T09:28:49;5.22;;;3.03;;
25980;SDS011;13772;52.996;9.124;2023-06-22T09:31:14;3.42;;;2.65;;
25980;SDS011;13772;52.996;9.124;2023-06-22T09:33:41;5.07;;;2.70;;
25980;SDS011;13772;52.996;9.124;2023-06-22T09:36:07;4.65;;;2.80;;
25980;SDS011;13772;52.996;9.124;2023-06-22T09:38:35;5.30;;;3.13;;
25980;SDS011;13772;52.996;9.124;2023-06-22T09:41:01;4.45;;;3.00;;
25980;SDS011;13772;52.996;9.124;2023-06-22T09:43:26;6.27;;;3.20;;
25980;SDS011;13772;52.996;9.124;2023-06-22T09:45:52;5.18;;;3.25;;
25980;SDS011;13772;52.996;9.124;2023-06-22T09:48:17;4.53;;;3.57;;
25980;SDS011;13772;52.996;9.124;2023-06-22T09:50:42;4.15;;;2.85;;
25980;SDS011;13772;52.996;9.124;2023-06-22T09:53:07;7.00;;;3.17;;
25980;SDS011;13772;52.996;9.124;2023-06-22T09:55:33;3.83;;;2.73;;
25980;SDS011;13772;52.996;9.124;2023-06-22T09:57:58;4.83;;;3.27;;
25980;SDS011;13772;52.996;9.124;2023-06-22T10:00:23;4.90;;;3.03;;
25980;SDS011;13772;52.996;9.124;2023-06-22T10:02:48;4.88;;;3.15;;
25980;SDS011;13772;52.996;9.124;2023-06-22T10:05:14;7.07;;;3.90;;
25980;SDS011;13772;52.996;9.124;2023-06-22T10:07:39;4.20;;;3.03;;
25980;SDS011;13772;52.996;9.124;2023-06-22T10:12:33;3.88;;;3.03;;
25980;SDS011;13772;52.996;9.124;2023-06-22T10:14:58;5.65;;;3.30;;
25980;SDS011;13772;52.996;9.124;2023-06-22T10:17:23;5.87;;;3.17;;
25980;SDS011;13772;52.996;9.124;2023-06-22T10:19:49;4.97;;;3.27;;
25980;SDS011;13772;52.996;9.124;2023-06-22T10:22:14;3.85;;;2.75;;
25980;SDS011;13772;52.996;9.124;2023-06-22T10:24:39;4.85;;;3.17;;
25980;SDS011;13772;52.996;9.124;2023-06-22T10:27:09;3.83;;;3.08;;
25980;SDS011;13772;52.996;9.124;2023-06-22T10:29:35;5.07;;;3.28;;
25980;SDS011;13772;52.996;9.124;2023-06-22T10:32:00;4.63;;;2.90;;
25980;SDS011;13772;52.996;9.124;2023-06-22T10:34:25;4.80;;;3.10;;
25980;SDS011;13772;52.996;9.124;2023-06-22T10:36:50;4.47;;;3.10;;
25980;SDS011;13772;52.996;9.124;2023-06-22T10:39:15;5.43;;;3.50;;
25980;SDS011;13772;52.996;9.124;2023-06-22T10:41:41;6.13;;;3.33;;
25980;SDS011;13772;52.996;9.124;2023-06-22T10:44:06;3.90;;;3.50;;
25980;SDS011;13772;52.996;9.124;2023-06-22T10:46:31;4.90;;;3.93;;
25980;SDS011;13772;52.996;9.124;2023-06-22T10:48:56;9.10;;;3.77;;
25980;SDS011;13772;52.996;9.124;2023-06-22T10:51:23;7.65;;;3.80;;
25980;SDS011;13772;52.996;9.124;2023-06-22T10:53:49;5.57;;;3.17;;
25980;SDS011;13772;52.996;9.124;2023-06-22T10:56:16;3.63;;;2.97;;
25980;SDS011;13772;52.996;9.124;2023-06-22T10:58:41;7.53;;;3.60;;
25980;SDS011;13772;52.996;9.124;2023-06-22T11:01:06;4.93;;;3.40;;
25980;SDS011;13772;52.996;9.124;2023-06-22T11:03:31;5.87;;;3.40;;
25980;SDS011;13772;52.996;9.124;2023-06-22T11:05:56;3.97;;;3.13;;
25980;SDS011;13772;52.996;9.124;2023-06-22T11:08:21;6.23;;;3.40;;
25980;SDS011;13772;52.996;9.124;2023-06-22T11:10:47;5.27;;;3.70;;
25980;SDS011;13772;52.996;9.124;2023-06-22T11:13:12;4.28;;;3.53;;
25980;SDS011;13772;52.996;9.124;2023-06-22T11:15:38;5.43;;;3.85;;
25980;SDS011;13772;52.996;9.124;2023-06-22T11:18:03;6.13;;;3.88;;
25980;SDS011;13772;52.996;9.124;2023-06-22T11:20:30;6.95;;;4.10;;
25980;SDS011;13772;52.996;9.124;2023-06-22T11:22:55;6.07;;;3.67;;
25980;SDS011;13772;52.996;9.124;2023-06-22T11:25:20;5.75;;;3.97;;
25980;SDS011;13772;52.996;9.124;2023-06-22T11:27:46;5.53;;;3.70;;
25980;SDS011;13772;52.996;9.124;2023-06-22T11:30:11;7.60;;;4.28;;
25980;SDS011;13772;52.996;9.124;2023-06-22T11:32:36;4.78;;;3.45;;
25980;SDS011;13772;52.996;9.124;2023-06-22T11:35:01;5.68;;;3.72;;
25980;SDS011;13772;52.996;9.124;2023-06-22T11:37:27;6.05;;;4.32;;
25980;SDS011;13772;52.996;9.124;2023-06-22T11:39:52;5.93;;;4.20;;
25980;SDS011;13772;52.996;9.124;2023-06-22T11:42:19;4.00;;;3.42;;
25980;SDS011;13772;52.996;9.124;2023-06-22T11:44:45;8.23;;;4.40;;
25980;SDS011;13772;52.996;9.124;2023-06-22T11:47:10;6.07;;;4.20;;
25980;SDS011;13772;52.996;9.124;2023-06-22T11:49:35;5.73;;;3.87;;
25980;SDS011;13772;52.996;9.124;2023-06-22T11:52:00;5.43;;;4.13;;
25980;SDS011;13772;52.996;9.124;2023-06-22T11:54:26;6.97;;;4.20;;
25980;SDS011;13772;52.996;9.124;2023-06-22T11:56:51;8.53;;;4.20;;
25980;SDS011;13772;52.996;9.124;2023-06-22T11:59:16;5.55;;;4.32;;
25980;SDS011;13772;52.996;9.124;2023-06-22T12:01:41;4.93;;;4.15;;
25980;SDS011;13772;52.996;9.124;2023-06-22T12:04:06;5.33;;;4.63;;
25980;SDS011;13772;52.996;9.124;2023-06-22T12:06:32;5.22;;;4.57;;
25980;SDS011;13772;52.996;9.124;2023-06-22T12:08:58;6.00;;;4.60;;
25980;SDS011;13772;52.996;9.124;2023-06-22T12:11:23;7.95;;;4.53;;
25980;SDS011;13772;52.996;9.124;2023-06-22T12:13:48;5.03;;;4.27;;
25980;SDS011;13772;52.996;9.124;2023-06-22T12:16:14;6.47;;;5.17;;
25980;SDS011;13772;52.996;9.124;2023-06-22T12:18:39;8.47;;;4.80;;
25980;SDS011;13772;52.996;9.124;2023-06-22T12:21:04;7.83;;;5.03;;
25980;SDS011;13772;52.996;9.124;2023-06-22T12:23:29;7.20;;;4.80;;
25980;SDS011;13772;52.996;9.124;2023-06-22T12:25:54;6.55;;;5.20;;
25980;SDS011;13772;52.996;9.124;2023-06-22T12:28:19;6.73;;;4.47;;
25980;SDS011;13772;52.996;9.124;2023-06-22T12:30:45;8.17;;;4.90;;
25980;SDS011;13772;52.996;9.124;2023-06-22T12:33:10;7.37;;;4.53;;
25980;SDS011;13772;52.996;9.124;2023-06-22T12:35:35;7.75;;;5.47;;
25980;SDS011;13772;52.996;9.124;2023-06-22T12:38:01;5.05;;;4.53;;
25980;SDS011;13772;52.996;9.124;2023-06-22T12:40:26;6.95;;;5.20;;
25980;SDS011;13772;52.996;9.124;2023-06-22T12:42:51;6.00;;;4.87;;
25980;SDS011;13772;52.996;9.124;2023-06-22T12:45:16;5.25;;;4.75;;
25980;SDS011;13772;52.996;9.124;2023-06-22T12:47:41;6.63;;;4.88;;
25980;SDS011;13772;52.996;9.124;2023-06-22T12:50:08;6.20;;;5.15;;
25980;SDS011;13772;52.996;9.124;2023-06-22T12:52:33;7.15;;;5.03;;
25980;SDS011;13772;52.996;9.124;2023-06-22T12:54:58;8.05;;;5.22;;
25980;SDS011;13772;52.996;9.124;2023-06-22T12:57:24;6.95;;;5.03;;
25980;SDS011;13772;52.996;9.124;2023-06-22T12:59:49;5.38;;;4.88;;
25980;SDS011;13772;52.996;9.124;2023-06-22T13:02:14;6.25;;;4.97;;
25980;SDS011;13772;52.996;9.124;2023-06-22T13:04:39;8.45;;;5.50;;
25980;SDS011;13772;52.996;9.124;2023-06-22T13:07:05;6.30;;;4.85;;
25980;SDS011;13772;52.996;9.124;2023-06-22T13:09:30;6.78;;;5.00;;
25980;SDS011;13772;52.996;9.124;2023-06-22T13:11:56;6.25;;;5.35;;
25980;SDS011;13772;52.996;9.124;2023-06-22T13:14:21;6.95;;;5.75;;
25980;SDS011;13772;52.996;9.124;2023-06-22T13:16:46;8.38;;;5.25;;
25980;SDS011;13772;52.996;9.124;2023-06-22T13:19:11;6.20;;;5.00;;
25980;SDS011;13772;52.996;9.124;2023-06-22T13:21:37;6.05;;;5.22;;
25980;SDS011;13772;52.996;9.124;2023-06-22T13:24:02;6.57;;;5.53;;
25980;SDS011;13772;52.996;9.124;2023-06-22T13:26:28;6.97;;;5.20;;
25980;SDS011;13772;52.996;9.124;2023-06-22T13:28:53;7.03;;;5.10;;
25980;SDS011;13772;52.996;9.124;2023-06-22T13:31:19;9.10;;;5.25;;
25980;SDS011;13772;52.996;9.124;2023-06-22T13:33:44;6.05;;;5.20;;
25980;SDS011;13772;52.996;9.124;2023-06-22T13:36:12;7.95;;;5.55;;
25980;SDS011;13772;52.996;9.124;2023-06-22T13:38:38;6.72;;;5.38;;
25980;SDS011;13772;52.996;9.124;2023-06-22T13:41:03;7.25;;;5.00;;
25980;SDS011;13772;52.996;9.124;2023-06-22T13:43:29;6.10;;;5.50;;
25980;SDS011;13772;52.996;9.124;2023-06-22T13:45:54;7.33;;;5.10;;
25980;SDS011;13772;52.996;9.124;2023-06-22T13:48:19;7.20;;;5.50;;
25980;SDS011;13772;52.996;9.124;2023-06-22T13:50:44;6.07;;;4.90;;
25980;SDS011;13772;52.996;9.124;2023-06-22T13:53:10;7.57;;;5.88;;
25980;SDS011;13772;52.996;9.124;2023-06-22T13:55:35;8.50;;;5.30;;
25980;SDS011;13772;52.996;9.124;2023-06-22T13:58:00;6.63;;;4.80;;
25980;SDS011;13772;52.996;9.124;2023-06-22T14:00:25;7.53;;;5.53;;
25980;SDS011;13772;52.996;9.124;2023-06-22T14:02:50;5.75;;;5.05;;
25980;SDS011;13772;52.996;9.124;2023-06-22T14:05:16;6.15;;;4.90;;
25980;SDS011;13772;52.996;9.124;2023-06-22T14:07:41;9.02;;;5.38;;
25980;SDS011;13772;52.996;9.124;2023-06-22T14:10:06;6.57;;;4.90;;
25980;SDS011;13772;52.996;9.124;2023-06-22T14:12:32;6.20;;;5.22;;
25980;SDS011;13772;52.996;9.124;2023-06-22T14:14:57;8.05;;;5.75;;
25980;SDS011;13772;52.996;9.124;2023-06-22T14:17:22;7.10;;;4.40;;
25980;SDS011;13772;52.996;9.124;2023-06-22T14:19:50;6.30;;;5.20;;
25980;SDS011;13772;52.996;9.124;2023-06-22T14:22:17;6.45;;;4.93;;
25980;SDS011;13772;52.996;9.124;2023-06-22T14:24:43;6.32;;;5.35;;
25980;SDS011;13772;52.996;9.124;2023-06-22T14:27:08;8.30;;;5.33;;
25980;SDS011;13772;52.996;9.124;2023-06-22T14:29:34;5.70;;;5.10;;
25980;SDS011;13772;52.996;9.124;2023-06-22T14:31:59;8.10;;;5.65;;
25980;SDS011;13772;52.996;9.124;2023-06-22T14:34:24;8.27;;;5.83;;
25980;SDS011;13772;52.996;9.124;2023-06-22T14:36:50;5.90;;;5.10;;
25980;SDS011;13772;52.996;9.124;2023-06-22T14:39:15;5.78;;;4.85;;
25980;SDS011;13772;52.996;9.124;2023-06-22T14:41:40;10.13;;;5.40;;
25980;SDS011;13772;52.996;9.124;2023-06-22T14:44:05;6.00;;;5.00;;
25980;SDS011;13772;52.996;9.124;2023-06-22T14:46:30;5.53;;;4.70;;
25980;SDS011;13772;52.996;9.124;2023-06-22T14:48:56;7.20;;;5.40;;
25980;SDS011;13772;52.996;9.124;2023-06-22T14:51:21;12.90;;;6.10;;
25980;SDS011;13772;52.996;9.124;2023-06-22T14:53:46;7.45;;;5.10;;
25980;SDS011;13772;52.996;9.124;2023-06-22T14:56:12;7.57;;;5.63;;
25980;SDS011;13772;52.996;9.124;2023-06-22T14:58:37;6.28;;;5.57;;
25980;SDS011;13772;52.996;9.124;2023-06-22T15:01:03;7.83;;;5.83;;
25980;SDS011;13772;52.996;9.124;2023-06-22T15:03:29;10.18;;;5.88;;
25980;SDS011;13772;52.996;9.124;2023-06-22T15:05:55;7.13;;;6.10;;
25980;SDS011;13772;52.996;9.124;2023-06-22T15:08:21;8.73;;;6.20;;
25980;SDS011;13772;52.996;9.124;2023-06-22T15:10:47;6.90;;;6.15;;
25980;SDS011;13772;52.996;9.124;2023-06-22T15:13:12;8.10;;;6.38;;
25980;SDS011;13772;52.996;9.124;2023-06-22T15:15:37;12.52;;;7.22;;
25980;SDS011;13772;52.996;9.124;2023-06-22T15:18:02;10.23;;;7.07;;
25980;SDS011;13772;52.996;9.124;2023-06-22T15:20:28;9.27;;;7.13;;
25980;SDS011;13772;52.996;9.124;2023-06-22T15:22:53;9.83;;;7.37;;
25980;SDS011;13772;52.996;9.124;2023-06-22T15:25:18;10.38;;;8.60;;
25980;SDS011;13772;52.996;9.124;2023-06-22T15:27:43;14.90;;;9.10;;
25980;SDS011;13772;52.996;9.124;2023-06-22T15:30:09;15.60;;;9.23;;
25980;SDS011;13772;52.996;9.124;2023-06-22T15:32:34;16.80;;;9.27;;
25980;SDS011;13772;52.996;9.124;2023-06-22T15:34:59;13.93;;;9.50;;
25980;SDS011;13772;52.996;9.124;2023-06-22T15:37:24;13.93;;;10.18;;
25980;SDS011;13772;52.996;9.124;2023-06-22T15:39:50;14.85;;;10.25;;
25980;SDS011;13772;52.996;9.124;2023-06-22T15:42:15;16.98;;;10.55;;
25980;SDS011;13772;52.996;9.124;2023-06-22T15:44:41;13.98;;;10.13;;
25980;SDS011;13772;52.996;9.124;2023-06-22T15:47:06;14.38;;;10.00;;
25980;SDS011;13772;52.996;9.124;2023-06-22T15:49:31;13.80;;;10.93;;
25980;SDS011;13772;52.996;9.124;2023-06-22T15:51:56;13.27;;;10.75;;
25980;SDS011;13772;52.996;9.124;2023-06-22T15:54:21;11.80;;;10.25;;
25980;SDS011;13772;52.996;9.124;2023-06-22T15:56:47;13.30;;;10.47;;
25980;SDS011;13772;52.996;9.124;2023-06-22T15:59:13;15.77;;;11.65;;
25980;SDS011;13772;52.996;9.124;2023-06-22T16:01:38;14.35;;;11.35;;
25980;SDS011;13772;52.996;9.124;2023-06-22T16:04:03;16.42;;;12.27;;
25980;SDS011;13772;52.996;9.124;2023-06-22T16:06:29;13.18;;;11.55;;
25980;SDS011;13772;52.996;9.124;2023-06-22T16:08:54;15.13;;;12.15;;
25980;SDS011;13772;52.996;9.124;2023-06-22T16:11:19;14.82;;;13.07;;
25980;SDS011;13772;52.996;9.124;2023-06-22T16:13:45;17.48;;;13.18;;
25980;SDS011;13772;52.996;9.124;2023-06-22T16:16:11;15.40;;;13.90;;
25980;SDS011;13772;52.996;9.124;2023-06-22T16:18:36;17.13;;;13.38;;
25980;SDS011;13772;52.996;9.124;2023-06-22T16:21:01;15.57;;;13.73;;
25980;SDS011;13772;52.996;9.124;2023-06-22T16:23:26;14.70;;;13.07;;
25980;SDS011;13772;52.996;9.124;2023-06-22T16:25:52;15.73;;;14.00;;
25980;SDS011;13772;52.996;9.124;2023-06-22T16:28:17;15.43;;;13.52;;
25980;SDS011;13772;52.996;9.124;2023-06-22T16:30:42;16.27;;;14.57;;
25980;SDS011;13772;52.996;9.124;2023-06-22T16:33:07;15.60;;;14.00;;
25980;SDS011;13772;52.996;9.124;2023-06-22T16:35:32;16.20;;;14.02;;
25980;SDS011;13772;52.996;9.124;2023-06-22T16:37:58;15.13;;;13.63;;
25980;SDS011;13772;52.996;9.124;2023-06-22T16:40:23;15.73;;;14.13;;
25980;SDS011;13772;52.996;9.124;2023-06-22T16:42:49;17.70;;;14.15;;
25980;SDS011;13772;52.996;9.124;2023-06-22T16:45:15;17.52;;;14.30;;
25980;SDS011;13772;52.996;9.124;2023-06-22T16:47:41;16.40;;;14.52;;
25980;SDS011;13772;52.996;9.124;2023-06-22T16:50:06;13.90;;;12.43;;
25980;SDS011;13772;52.996;9.124;2023-06-22T16:52:32;14.55;;;12.65;;
25980;SDS011;13772;52.996;9.124;2023-06-22T16:54:57;13.00;;;11.70;;
25980;SDS011;13772;52.996;9.124;2023-06-22T16:57:23;16.40;;;13.38;;
25980;SDS011;13772;52.996;9.124;2023-06-22T16:59:51;15.43;;;12.27;;
25980;SDS011;13772;52.996;9.124;2023-06-22T17:02:17;13.70;;;12.20;;
25980;SDS011;13772;52.996;9.124;2023-06-22T17:04:44;14.13;;;12.73;;
25980;SDS011;13772;52.996;9.124;2023-06-22T17:07:11;13.50;;;11.80;;
25980;SDS011;13772;52.996;9.124;2023-06-22T17:09:43;14.07;;;11.63;;
25980;SDS011;13772;52.996;9.124;2023-06-22T17:12:10;12.52;;;10.73;;
25980;SDS011;13772;52.996;9.124;2023-06-22T17:14:37;12.43;;;11.18;;
25980;SDS011;13772;52.996;9.124;2023-06-22T17:17:03;13.38;;;12.05;;
25980;SDS011;13772;52.996;9.124;2023-06-22T17:19:29;13.45;;;12.18;;
25980;SDS011;13772;52.996;9.124;2023-06-22T17:21:54;14.90;;;13.38;;
25980;SDS011;13772;52.996;9.124;2023-06-22T17:24:20;15.30;;;13.00;;
25980;SDS011;13772;52.996;9.124;2023-06-22T17:26:46;14.20;;;12.48;;
25980;SDS011;13772;52.996;9.124;2023-06-22T17:29:11;15.15;;;12.40;;
25980;SDS011;13772;52.996;9.124;2023-06-22T17:31:37;13.35;;;11.88;;
25980;SDS011;13772;52.996;9.124;2023-06-22T17:34:06;15.38;;;12.38;;
25980;SDS011;13772;52.996;9.124;2023-06-22T17:36:31;14.63;;;12.15;;
25980;SDS011;13772;52.996;9.124;2023-06-22T17:38:59;14.17;;;12.77;;
25980;SDS011;13772;52.996;9.124;2023-06-22T17:41:31;14.55;;;11.48;;
25980;SDS011;13772;52.996;9.124;2023-06-22T17:43:57;12.25;;;10.70;;
25980;SDS011;13772;52.996;9.124;2023-06-22T17:46:23;13.82;;;11.82;;
25980;SDS011;13772;52.996;9.124;2023-06-22T17:48:50;12.75;;;10.90;;
25980;SDS011;13772;52.996;9.124;2023-06-22T17:51:16;14.15;;;11.80;;
25980;SDS011;13772;52.996;9.124;2023-06-22T17:53:49;13.00;;;11.63;;
25980;SDS011;13772;52.996;9.124;2023-06-22T17:56:14;12.65;;;11.35;;
25980;SDS011;13772;52.996;9.124;2023-06-22T17:58:49;13.73;;;12.10;;
25980;SDS011;13772;52.996;9.124;2023-06-22T18:01:14;12.57;;;11.32;;
25980;SDS011;13772;52.996;9.124;2023-06-22T18:03:40;13.20;;;11.75;;
25980;SDS011;13772;52.996;9.124;2023-06-22T18:06:05;14.13;;;11.70;;
25980;SDS011;13772;52.996;9.124;2023-06-22T18:08:30;15.07;;;12.45;;
25980;SDS011;13772;52.996;9.124;2023-06-22T18:10:56;14.13;;;12.60;;
25980;SDS011;13772;52.996;9.124;2023-06-22T18:13:22;15.60;;;12.27;;
25980;SDS011;13772;52.996;9.124;2023-06-22T18:15:47;13.52;;;12.13;;
25980;SDS011;13772;52.996;9.124;2023-06-22T18:18:13;15.20;;;12.70;;
25980;SDS011;13772;52.996;9.124;2023-06-22T18:20:39;13.20;;;11.80;;
25980;SDS011;13772;52.996;9.124;2023-06-22T18:23:04;13.98;;;12.15;;
25980;SDS011;13772;52.996;9.124;2023-06-22T18:25:30;13.25;;;11.95;;
25980;SDS011;13772;52.996;9.124;2023-06-22T18:27:56;16.33;;;13.07;;
25980;SDS011;13772;52.996;9.124;2023-06-22T18:30:21;15.98;;;12.43;;
25980;SDS011;13772;52.996;9.124;2023-06-22T18:32:47;13.95;;;12.48;;
25980;SDS011;13772;52.996;9.124;2023-06-22T18:35:13;16.05;;;13.30;;
25980;SDS011;13772;52.996;9.124;2023-06-22T18:37:39;14.38;;;12.68;;
25980;SDS011;13772;52.996;9.124;2023-06-22T18:40:05;14.68;;;12.95;;
25980;SDS011;13772;52.996;9.124;2023-06-22T18:42:32;14.93;;;11.50;;
25980;SDS011;13772;52.996;9.124;2023-06-22T18:44:58;20.73;;;13.95;;
25980;SDS011;13772;52.996;9.124;2023-06-22T18:47:30;18.48;;;13.55;;
25980;SDS011;13772;52.996;9.124;2023-06-22T18:50:05;17.20;;;13.68;;
25980;SDS011;13772;52.996;9.124;2023-06-22T18:52:31;14.23;;;12.48;;
25980;SDS011;13772;52.996;9.124;2023-06-22T18:54:57;13.73;;;11.50;;
25980;SDS011;13772;52.996;9.124;2023-06-22T18:57:29;15.18;;;12.32;;
25980;SDS011;13772;52.996;9.124;2023-06-22T19:00:02;17.73;;;13.20;;
25980;SDS011;13772;52.996;9.124;2023-06-22T19:02:39;14.45;;;12.93;;
25980;SDS011;13772;52.996;9.124;2023-06-22T19:05:08;17.58;;;13.90;;
25980;SDS011;13772;52.996;9.124;2023-06-22T19:12:45;18.65;;;14.20;;
25980;SDS011;13772;52.996;9.124;2023-06-22T19:15:11;17.83;;;14.23;;
25980;SDS011;13772;52.996;9.124;2023-06-22T19:17:42;17.50;;;14.85;;
25980;SDS011;13772;52.996;9.124;2023-06-22T19:20:08;19.45;;;14.52;;
25980;SDS011;13772;52.996;9.124;2023-06-22T19:22:52;16.75;;;14.55;;
25980;SDS011;13772;52.996;9.124;2023-06-22T19:25:19;17.17;;;15.05;;
25980;SDS011;13772;52.996;9.124;2023-06-22T19:27:45;20.05;;;15.50;;
25980;SDS011;13772;52.996;9.124;2023-06-22T19:30:11;20.00;;;15.93;;
25980;SDS011;13772;52.996;9.124;2023-06-22T19:32:38;17.45;;;15.50;;
25980;SDS011;13772;52.996;9.124;2023-06-22T19:35:03;18.65;;;16.25;;
25980;SDS011;13772;52.996;9.124;2023-06-22T19:37:30;18.33;;;16.42;;
25980;SDS011;13772;52.996;9.124;2023-06-22T19:39:55;21.70;;;17.00;;
25980;SDS011;13772;52.996;9.124;2023-06-22T19:42:20;21.07;;;17.33;;
25980;SDS011;13772;52.996;9.124;2023-06-22T19:44:46;20.48;;;16.50;;
25980;SDS011;13772;52.996;9.124;2023-06-22T19:47:11;20.02;;;17.35;;
25980;SDS011;13772;52.996;9.124;2023-06-22T19:49:37;22.77;;;17.17;;